createdAt,value
2018-09-15T00:01:16.974Z,16.71
2018-09-15T00:06:19.131Z,16.59
2018-09-15T00:11:21.273Z,16.66
2018-09-15T00:16:23.434Z,16.65
2018-09-15T00:21:25.572Z,16.72
2018-09-15T00:26:27.722Z,16.65
2018-09-15T00:31:29.843Z,16.65
2018-09-15T00:36:31.986Z,16.65
2018-09-15T00:41:34.156Z,16.59
2018-09-15T00:51:51.444Z,16.41
2018-09-15T00:56:53.607Z,16.35
2018-09-15T01:01:55.735Z,16.36
2018-09-15T01:06:57.893Z,16.27
2018-09-15T01:12:00.039Z,16.31
2018-09-15T01:17:02.166Z,16.28
2018-09-15T01:22:04.323Z,16.23
2018-09-15T01:27:06.493Z,16.30
2018-09-15T01:32:08.633Z,16.28
2018-09-15T01:37:10.763Z,16.31
2018-09-15T01:42:12.915Z,16.31
2018-09-15T01:47:15.030Z,16.35
2018-09-15T01:52:17.158Z,16.33
2018-09-15T01:57:19.302Z,16.31
2018-09-15T02:02:21.456Z,16.32
2018-09-15T02:07:23.609Z,16.23
2018-09-15T02:12:25.746Z,16.26
2018-09-15T02:17:27.870Z,16.30
2018-09-15T02:22:30.023Z,16.29
2018-09-15T02:27:32.178Z,16.34
2018-09-15T02:32:34.355Z,16.28
2018-09-15T02:37:36.496Z,16.31
2018-09-15T02:42:38.617Z,16.21
2018-09-15T02:47:41.128Z,16.23
2018-09-15T02:52:43.283Z,16.18
2018-09-15T02:57:45.432Z,16.17
2018-09-15T03:02:47.538Z,16.15
2018-09-15T03:07:49.674Z,16.23
2018-09-15T03:12:51.937Z,16.13
2018-09-15T03:17:54.078Z,16.21
2018-09-15T03:22:56.238Z,16.10
2018-09-15T03:27:58.371Z,16.08
2018-09-15T03:33:00.470Z,16.04
2018-09-15T03:38:02.634Z,15.97
2018-09-15T03:43:04.942Z,15.85
2018-09-15T03:48:07.107Z,15.79
2018-09-15T03:53:09.221Z,15.77
2018-09-15T03:58:11.386Z,15.74
2018-09-15T04:03:13.533Z,15.68
2018-09-15T04:08:15.646Z,15.68
2018-09-15T04:13:17.764Z,15.65
2018-09-15T04:18:19.878Z,15.59
2018-09-15T04:23:22.008Z,15.69
2018-09-15T04:28:24.206Z,15.63
2018-09-15T04:33:26.302Z,15.62
2018-09-15T04:38:28.442Z,15.59
2018-09-15T04:43:30.549Z,15.58
2018-09-15T04:48:32.650Z,15.53
2018-09-15T04:53:34.795Z,15.54
2018-09-15T04:58:37.011Z,15.54
2018-09-15T05:03:39.155Z,15.44
2018-09-15T05:08:41.288Z,15.49
2018-09-15T05:13:43.430Z,15.40
2018-09-15T05:18:45.583Z,15.45
2018-09-15T05:23:47.706Z,15.49
2018-09-15T05:28:49.866Z,15.43
2018-09-15T05:33:52.056Z,15.39
2018-09-15T05:38:54.212Z,15.40
2018-09-15T05:43:56.309Z,15.41
2018-09-15T05:48:58.415Z,15.47
2018-09-15T05:54:00.661Z,15.44
2018-09-15T05:59:02.877Z,15.44
2018-09-15T06:04:05.090Z,15.47
2018-09-15T06:09:08.256Z,15.42
2018-09-15T06:14:10.431Z,15.43
2018-09-15T06:19:12.561Z,15.46
2018-09-15T06:24:14.741Z,15.54
2018-09-15T06:29:17.446Z,15.51
2018-09-15T06:34:19.595Z,15.64
2018-09-15T06:39:21.817Z,15.61
2018-09-15T06:44:23.925Z,15.72
2018-09-15T06:49:26.051Z,15.96
2018-09-15T06:54:28.219Z,16.08
2018-09-15T06:59:30.418Z,16.12
2018-09-15T07:04:32.569Z,16.22
2018-09-15T07:09:34.677Z,16.34
2018-09-15T07:14:36.822Z,16.30
2018-09-15T07:19:38.981Z,16.27
2018-09-15T07:24:41.121Z,16.18
2018-09-15T07:29:43.272Z,16.21
2018-09-15T07:34:45.460Z,16.18
2018-09-15T07:39:47.582Z,15.91
2018-09-15T07:44:49.937Z,15.83
2018-09-15T07:49:52.128Z,15.88
2018-09-15T07:54:54.306Z,15.95
2018-09-15T07:59:56.542Z,15.87
2018-09-15T08:04:58.765Z,15.86
2018-09-15T08:10:00.952Z,16.06
2018-09-15T08:15:03.149Z,16.12
2018-09-15T08:20:06.264Z,16.18
2018-09-15T08:25:08.795Z,16.16
2018-09-15T08:30:10.964Z,16.25
2018-09-15T08:35:13.116Z,16.23
2018-09-15T08:40:15.338Z,16.20
2018-09-15T08:45:18.036Z,16.46
2018-09-15T08:50:20.206Z,16.68
2018-09-15T08:55:22.365Z,16.84
2018-09-15T09:00:24.619Z,17.00
2018-09-15T09:05:26.752Z,17.03
2018-09-15T09:10:28.892Z,17.18
2018-09-15T09:15:31.043Z,17.47
2018-09-15T09:20:33.167Z,17.45
2018-09-15T09:25:35.314Z,17.56
2018-09-15T09:30:37.460Z,17.52
2018-09-15T09:35:39.673Z,17.58
2018-09-15T09:40:41.849Z,17.71
2018-09-15T09:45:44.023Z,17.74
2018-09-15T09:50:46.211Z,17.65
2018-09-15T09:55:48.558Z,17.57
2018-09-15T10:00:56.420Z,17.55
2018-09-15T10:05:58.698Z,17.47
2018-09-15T10:11:00.854Z,17.70
2018-09-15T10:16:03.090Z,17.95
2018-09-15T10:21:05.206Z,17.98
2018-09-15T10:26:07.502Z,17.99
2018-09-15T10:31:09.704Z,18.06
2018-09-15T10:36:12.272Z,18.24
2018-09-15T10:41:14.591Z,18.38
2018-09-15T10:46:16.813Z,18.36
2018-09-15T10:51:18.959Z,18.36
2018-09-15T10:56:21.183Z,18.47
2018-09-15T11:01:23.361Z,18.65
2018-09-15T11:06:25.589Z,18.51
2018-09-15T11:11:27.791Z,18.49
2018-09-15T11:16:30.539Z,18.33
2018-09-15T11:21:32.741Z,18.30
2018-09-15T11:26:34.928Z,18.64
2018-09-15T11:31:37.559Z,19.06
2018-09-15T11:36:39.777Z,19.68
2018-09-15T11:41:41.957Z,19.91
2018-09-15T11:46:44.123Z,19.86
2018-09-15T11:51:46.319Z,19.37
2018-09-15T11:56:48.502Z,19.06
2018-09-15T12:01:50.781Z,18.89
2018-09-15T12:06:52.972Z,18.79
2018-09-15T12:11:55.187Z,18.64
2018-09-15T12:16:57.388Z,18.27
2018-09-15T12:21:59.548Z,18.13
2018-09-15T12:27:01.712Z,18.03
2018-09-15T12:32:03.930Z,18.06
2018-09-15T12:37:06.161Z,18.05
2018-09-15T12:42:08.364Z,18.03
2018-09-15T12:47:10.526Z,17.98
2018-09-15T12:52:12.751Z,17.95
2018-09-15T12:57:14.927Z,18.07
2018-09-15T13:02:17.126Z,18.25
2018-09-15T13:07:19.311Z,18.50
2018-09-15T13:12:21.478Z,18.27
2018-09-15T13:17:23.762Z,18.44
2018-09-15T13:22:25.939Z,18.57
2018-09-15T13:27:28.153Z,18.80
2018-09-15T13:32:31.019Z,18.74
2018-09-15T13:37:33.139Z,18.91
2018-09-15T13:42:35.272Z,19.02
2018-09-15T13:47:37.422Z,19.21
2018-09-15T13:52:39.607Z,19.08
2018-09-15T13:57:41.793Z,18.72
2018-09-15T14:02:44.136Z,18.64
2018-09-15T14:07:46.320Z,18.44
2018-09-15T14:12:48.508Z,18.41
2018-09-15T14:17:50.686Z,18.26
2018-09-15T14:22:52.864Z,17.95
2018-09-15T14:27:55.054Z,17.73
2018-09-15T14:32:57.251Z,17.49
2018-09-15T14:37:59.435Z,17.26
2018-09-15T14:43:01.989Z,17.27
2018-09-15T14:48:04.618Z,17.15
2018-09-15T14:53:06.783Z,17.16
2018-09-15T14:58:08.976Z,17.08
2018-09-15T15:03:11.871Z,16.99
2018-09-15T15:08:14.068Z,16.91
2018-09-15T15:13:16.229Z,16.93
2018-09-15T15:18:18.396Z,17.00
2018-09-15T15:23:20.575Z,17.11
2018-09-15T15:28:22.730Z,17.12
2018-09-15T15:33:24.980Z,17.11
2018-09-15T15:38:27.158Z,17.11
2018-09-15T15:43:29.405Z,17.10
2018-09-15T15:48:31.596Z,16.97
2018-09-15T15:53:33.758Z,16.91
2018-09-15T15:58:36.041Z,16.92
2018-09-15T16:03:38.179Z,16.90
2018-09-15T16:08:40.363Z,16.89
2018-09-15T16:13:42.591Z,16.95
2018-09-15T16:18:44.798Z,16.78
2018-09-15T16:23:46.979Z,16.81
2018-09-15T16:28:49.411Z,16.79
2018-09-15T16:33:51.896Z,16.84
2018-09-15T16:38:54.094Z,16.70
2018-09-15T16:43:56.358Z,16.67
2018-09-15T16:48:58.511Z,16.64
2018-09-15T16:54:00.701Z,16.67
2018-09-15T16:59:02.905Z,16.65
2018-09-15T17:04:05.167Z,16.52
2018-09-15T17:09:08.785Z,16.56
2018-09-15T17:14:10.973Z,16.46
2018-09-15T17:19:13.179Z,16.35
2018-09-15T17:24:15.407Z,16.37
2018-09-15T17:29:17.578Z,16.40
2018-09-15T17:34:19.744Z,16.32
2018-09-15T17:39:21.952Z,16.35
2018-09-15T17:44:24.100Z,16.35
2018-09-15T17:49:26.275Z,16.26
2018-09-15T17:54:28.527Z,16.29
2018-09-15T17:59:30.782Z,16.19
2018-09-15T18:04:33.007Z,16.10
2018-09-15T18:09:35.264Z,16.10
2018-09-15T18:14:37.389Z,16.10
2018-09-15T18:19:39.585Z,16.05
2018-09-15T18:24:41.825Z,16.03
2018-09-15T18:29:43.984Z,16.07
2018-09-15T18:34:46.173Z,16.01
2018-09-15T18:39:48.491Z,16.06
2018-09-15T18:44:50.680Z,16.00
2018-09-15T18:49:52.879Z,15.91
2018-09-15T18:54:55.145Z,15.86
2018-09-15T18:59:57.383Z,15.68
2018-09-15T19:04:59.717Z,15.69
2018-09-15T19:10:01.979Z,15.57
2018-09-15T19:15:04.313Z,15.50
2018-09-15T19:20:07.524Z,15.39
2018-09-15T19:25:10.054Z,15.57
2018-09-15T19:30:12.387Z,15.44
2018-09-15T19:35:14.757Z,15.53
2018-09-15T19:40:17.113Z,15.70
2018-09-15T19:45:19.580Z,15.61
2018-09-15T19:50:21.915Z,15.58
2018-09-15T19:55:24.152Z,15.60
2018-09-15T20:00:26.402Z,15.59
2018-09-15T20:05:28.788Z,15.45
2018-09-15T20:10:31.064Z,15.42
2018-09-15T20:15:32.383Z,15.36
2018-09-15T20:20:33.688Z,15.38
2018-09-15T20:25:35.972Z,15.35
2018-09-15T20:30:38.569Z,15.35
2018-09-15T20:35:41.005Z,15.23
2018-09-15T20:40:43.187Z,15.08
2018-09-15T20:45:45.432Z,15.05
2018-09-15T20:50:47.653Z,15.02
2018-09-15T20:55:49.876Z,14.69
2018-09-15T21:00:52.112Z,14.82
2018-09-15T21:05:54.402Z,14.76
2018-09-15T21:10:56.567Z,14.82
2018-09-15T21:15:58.749Z,14.78
2018-09-15T21:21:00.990Z,14.59
2018-09-15T21:26:03.161Z,14.55
2018-09-15T21:31:05.589Z,14.55
2018-09-15T21:36:07.772Z,14.55
2018-09-15T21:41:09.958Z,14.47
2018-09-15T21:46:12.190Z,14.52
2018-09-15T21:51:14.462Z,14.34
2018-09-15T21:56:16.625Z,14.36
2018-09-15T22:01:18.825Z,14.37
2018-09-15T22:06:21.111Z,14.43
2018-09-15T22:11:23.343Z,14.28
2018-09-15T22:16:25.548Z,14.23
2018-09-15T22:21:27.757Z,14.15
2018-09-15T22:26:29.997Z,14.21
2018-09-15T22:31:32.154Z,14.12
2018-09-15T22:36:34.298Z,14.24
2018-09-15T22:41:37.175Z,14.43
2018-09-15T22:46:39.318Z,14.47
2018-09-15T22:51:41.503Z,14.37
2018-09-15T22:56:43.750Z,14.27
2018-09-15T23:01:45.894Z,14.35
2018-09-15T23:06:48.179Z,14.26
2018-09-15T23:11:50.349Z,14.21
2018-09-15T23:16:52.865Z,14.12
2018-09-15T23:21:55.099Z,14.11
2018-09-15T23:26:57.214Z,14.13
2018-09-15T23:31:59.346Z,14.07
2018-09-15T23:37:01.503Z,14.04
2018-09-15T23:42:03.680Z,14.01
2018-09-15T23:47:05.807Z,14.12
2018-09-15T23:52:08.182Z,14.06
2018-09-15T23:57:10.320Z,14.07
